Time;durP1;ratioP1;P1;durP2;ratioP2;P2;SDS_P1;SDS_P2;PMS_P1;PMS_P2;Temp;Humidity;BMP_temperature;BMP_pressure;BME280_temperature;BME280_humidity;BME280_pressure;Samples;Min_cycle;Max_cycle;Signal;HPM_P1;HPM_P2
2023/10/19 00:02:06;;;;;;;17.80;10.73;;;15.60;99.90;;;;;;5056951;28;20478;-63
2023/10/19 00:04:36;;;;;;;14.80;10.40;;;15.60;99.90;;;;;;5059220;28;20458;-64
2023/10/19 00:07:04;;;;;;;16.97;9.63;;;15.60;99.90;;;;;;5061769;28;21059;-64
2023/10/19 00:09:37;;;;;;;15.07;9.80;;;15.60;99.90;;;;;;5063307;28;20467;-63
2023/10/19 00:12:04;;;;;;;9.00;8.00;;;15.60;99.90;;;;;;5064045;28;20466;-65
2023/10/19 00:14:32;;;;;;;17.50;11.07;;;15.60;99.90;;;;;;5058461;28;20474;-64
2023/10/19 00:17:00;;;;;;;17.83;12.07;;;15.60;99.90;;;;;;5061703;28;20558;-64
2023/10/19 00:19:28;;;;;;;14.53;9.63;;;15.60;99.90;;;;;;5060548;28;20832;-64
2023/10/19 00:22:01;;;;;;;11.87;8.67;;;15.60;99.90;;;;;;5062955;28;21085;-65
2023/10/19 00:24:31;;;;;;;13.37;9.53;;;15.60;99.90;;;;;;5075458;28;21242;-64
2023/10/19 00:27:05;;;;;;;13.07;9.53;;;15.60;99.90;;;;;;5062311;28;20479;-64
2023/10/19 00:29:32;;;;;;;16.70;9.43;;;15.50;99.90;;;;;;5062608;28;20487;-64
2023/10/19 00:31:59;;;;;;;15.87;9.60;;;15.40;99.90;;;;;;5062137;28;20545;-64
2023/10/19 00:34:28;;;;;;;19.57;10.73;;;15.30;99.90;;;;;;5059995;28;20506;-64
2023/10/19 00:37:01;;;;;;;18.77;9.53;;;15.30;99.90;;;;;;5063521;28;20554;-63
2023/10/19 00:39:33;;;;;;;15.30;9.50;;;15.20;99.90;;;;;;5059418;28;20485;-64
2023/10/19 00:42:02;;;;;;;15.67;9.83;;;15.20;99.90;;;;;;5063204;28;21004;-64
2023/10/19 00:44:37;;;;;;;11.97;9.10;;;15.20;99.90;;;;;;5060035;28;20483;-64
2023/10/19 00:47:07;;;;;;;13.00;9.50;;;15.20;99.90;;;;;;5062757;28;21055;-64
2023/10/19 00:49:34;;;;;;;13.33;9.10;;;15.20;99.90;;;;;;5078831;28;20584;-64
2023/10/19 00:52:11;;;;;;;14.57;9.73;;;15.30;99.90;;;;;;5060406;28;20576;-64
2023/10/19 00:54:41;;;;;;;15.67;10.50;;;15.30;99.90;;;;;;5060730;28;20886;-64
2023/10/19 00:57:10;;;;;;;12.37;9.80;;;15.40;99.90;;;;;;5061779;28;20525;-64
2023/10/19 00:59:43;;;;;;;13.70;9.80;;;15.40;99.90;;;;;;5061347;28;21512;-64
2023/10/19 01:02:18;;;;;;;18.13;10.40;;;15.40;99.90;;;;;;5061494;28;20902;-64
2023/10/19 01:04:46;;;;;;;15.10;9.50;;;15.40;99.90;;;;;;5047458;28;20469;-64
2023/10/19 01:07:22;;;;;;;15.03;10.03;;;15.40;99.90;;;;;;5079251;28;20481;-63
2023/10/19 01:09:52;;;;;;;14.23;9.60;;;15.40;99.90;;;;;;5051808;28;20820;-64
2023/10/19 01:12:29;;;;;;;12.23;9.00;;;15.50;99.90;;;;;;5062035;28;20485;-64
2023/10/19 01:15:06;;;;;;;14.10;9.73;;;15.50;99.90;;;;;;5061807;28;20498;-64
2023/10/19 01:17:34;;;;;;;16.27;8.47;;;15.50;99.90;;;;;;5061075;28;20470;-63
2023/10/19 01:20:07;;;;;;;14.53;10.57;;;15.50;99.90;;;;;;5061158;28;20475;-64
2023/10/19 01:22:36;;;;;;;11.83;8.03;;;15.50;99.90;;;;;;5060998;28;20479;-64
2023/10/19 01:25:11;;;;;;;11.77;8.50;;;15.50;99.90;;;;;;5061642;28;20582;-63
2023/10/19 01:27:38;;;;;;;12.83;8.87;;;15.50;99.90;;;;;;5059992;28;20475;-65
2023/10/19 01:30:09;;;;;;;17.40;10.17;;;15.60;99.90;;;;;;5056302;28;20504;-65
2023/10/19 01:32:35;;;;;;;15.30;8.87;;;15.60;99.90;;;;;;5059199;28;20602;-65
2023/10/19 01:35:02;;;;;;;14.13;8.07;;;15.60;99.90;;;;;;5057608;28;21028;-64
2023/10/19 01:37:28;;;;;;;9.67;6.23;;;15.60;99.90;;;;;;5074270;28;20574;-65
2023/10/19 01:39:55;;;;;;;12.03;7.93;;;15.60;99.90;;;;;;5062961;28;20549;-65
2023/10/19 01:42:23;;;;;;;12.93;7.60;;;15.60;99.90;;;;;;5070536;28;20653;-65
2023/10/19 01:44:50;;;;;;;9.97;6.00;;;15.60;99.90;;;;;;5068216;28;20782;-65
2023/10/19 01:47:16;;;;;;;9.30;7.17;;;15.70;99.90;;;;;;5066274;28;20562;-64
2023/10/19 01:49:45;;;;;;;11.27;7.50;;;15.60;99.90;;;;;;5053896;28;20561;-63
2023/10/19 01:52:11;;;;;;;7.43;6.40;;;15.60;99.90;;;;;;5082973;28;20486;-64
2023/10/19 01:54:37;;;;;;;11.27;6.83;;;15.70;99.90;;;;;;5069506;28;20496;-64
2023/10/19 01:57:05;;;;;;;18.83;9.60;;;15.80;99.90;;;;;;5064707;28;20434;-64
2023/10/19 01:59:34;;;;;;;7.43;6.30;;;15.80;99.90;;;;;;5076092;28;20489;-64
2023/10/19 02:02:02;;;;;;;10.90;7.00;;;15.80;99.90;;;;;;5078746;28;20549;-64
2023/10/19 02:04:28;;;;;;;11.50;7.40;;;15.80;99.90;;;;;;5070251;28;20482;-64
2023/10/19 02:06:55;;;;;;;7.17;5.50;;;15.80;99.90;;;;;;5075978;28;20509;-63
2023/10/19 02:09:26;;;;;;;8.57;5.60;;;15.70;99.90;;;;;;5070600;28;20980;-64
2023/10/19 02:11:55;;;;;;;8.77;5.90;;;15.80;99.90;;;;;;5062425;28;20466;-64
2023/10/19 02:14:24;;;;;;;9.17;6.63;;;16.00;99.90;;;;;;5061977;28;20474;-64
2023/10/19 02:16:53;;;;;;;6.13;5.07;;;16.10;99.90;;;;;;5066115;28;21008;-63
2023/10/19 02:19:20;;;;;;;13.70;6.20;;;16.00;99.90;;;;;;5067366;28;20650;-63
2023/10/19 02:21:48;;;;;;;9.60;5.23;;;16.00;99.90;;;;;;5061775;28;21232;-64
2023/10/19 02:24:15;;;;;;;8.97;5.70;;;16.00;99.90;;;;;;5055001;28;20542;-64
2023/10/19 02:26:42;;;;;;;12.97;6.00;;;16.00;99.90;;;;;;5055184;28;21272;-64
2023/10/19 02:29:09;;;;;;;9.40;5.43;;;16.00;99.90;;;;;;5059856;28;20503;-64
2023/10/19 02:31:37;;;;;;;7.07;4.90;;;16.00;99.90;;;;;;5062033;28;20487;-64
2023/10/19 02:34:06;;;;;;;6.03;4.33;;;16.10;99.90;;;;;;5058031;28;20928;-64
2023/10/19 02:36:32;;;;;;;8.43;5.40;;;16.30;99.90;;;;;;5058560;28;20609;-64
2023/10/19 02:39:07;;;;;;;7.10;5.17;;;16.30;99.90;;;;;;5060616;28;20485;-65
2023/10/19 02:41:35;;;;;;;9.73;5.20;;;16.30;99.90;;;;;;5058564;28;20478;-64
2023/10/19 02:44:07;;;;;;;13.53;4.77;;;16.40;99.90;;;;;;5059438;28;20481;-64
2023/10/19 02:46:33;;;;;;;7.00;4.80;;;16.40;99.90;;;;;;5060002;28;20689;-64
2023/10/19 02:49:02;;;;;;;10.20;5.63;;;16.40;99.90;;;;;;5060209;28;20471;-64
2023/10/19 02:51:30;;;;;;;5.30;4.13;;;16.40;99.90;;;;;;5063251;28;20247;-64
2023/10/19 02:53:59;;;;;;;5.77;4.47;;;16.30;99.90;;;;;;5074082;28;20923;-64
2023/10/19 02:56:27;;;;;;;5.60;4.10;;;16.30;99.90;;;;;;5059287;28;20560;-64
2023/10/19 02:58:52;;;;;;;5.53;3.97;;;16.30;99.90;;;;;;5060649;28;20475;-65
2023/10/19 03:01:22;;;;;;;7.07;4.27;;;16.40;99.90;;;;;;5060125;28;21321;-66
2023/10/19 03:03:50;;;;;;;6.50;4.53;;;16.60;99.90;;;;;;5058274;28;20788;-66
2023/10/19 03:06:21;;;;;;;6.23;4.93;;;16.70;99.90;;;;;;5059659;28;20510;-66
2023/10/19 03:08:52;;;;;;;7.47;4.60;;;16.70;99.90;;;;;;5056261;28;21502;-66
2023/10/19 03:11:20;;;;;;;5.90;4.57;;;16.70;99.90;;;;;;5056518;28;20475;-66
2023/10/19 03:13:49;;;;;;;7.87;5.00;;;16.60;99.90;;;;;;5074083;28;20504;-66
2023/10/19 03:16:17;;;;;;;7.23;4.60;;;16.70;99.90;;;;;;5056164;28;20943;-65
2023/10/19 03:18:44;;;;;;;8.03;5.20;;;16.80;99.90;;;;;;5059389;28;20494;-66
2023/10/19 03:21:11;;;;;;;8.20;5.50;;;16.70;99.90;;;;;;5059079;28;20569;-65
2023/10/19 03:23:37;;;;;;;8.50;5.10;;;16.70;99.90;;;;;;5057129;28;20482;-65
2023/10/19 03:26:27;;;;;;;7.57;5.07;;;16.80;99.90;;;;;;5055627;28;20859;-65
2023/10/19 03:28:56;;;;;;;8.93;5.30;;;16.70;99.90;;;;;;5046876;28;20506;-65
2023/10/19 03:31:25;;;;;;;13.53;4.90;;;16.60;99.90;;;;;;5057349;28;20479;-65
2023/10/19 03:33:54;;;;;;;8.83;4.87;;;16.60;99.90;;;;;;5063960;28;20478;-65
2023/10/19 03:36:21;;;;;;;22.00;5.63;;;16.70;99.90;;;;;;5058805;28;21056;-65
2023/10/19 03:38:49;;;;;;;5.63;4.83;;;16.70;99.90;;;;;;5059183;28;20602;-65
2023/10/19 03:41:21;;;;;;;17.43;6.90;;;16.80;99.90;;;;;;5054055;28;20494;-65
2023/10/19 03:43:48;;;;;;;8.30;4.10;;;16.80;99.90;;;;;;5054113;28;20483;-65
2023/10/19 03:46:28;;;;;;;7.30;3.83;;;16.80;99.90;;;;;;5053875;28;20486;-65
2023/10/19 03:48:59;;;;;;;9.00;4.67;;;16.80;99.90;;;;;;5055682;28;20467;-65
2023/10/19 03:51:27;;;;;;;6.40;4.80;;;16.70;99.90;;;;;;5059167;28;20502;-65
2023/10/19 03:54:00;;;;;;;5.83;4.13;;;16.70;99.90;;;;;;5058094;28;20486;-66
2023/10/19 03:56:32;;;;;;;9.70;4.20;;;16.70;99.90;;;;;;5057774;28;20636;-66
2023/10/19 03:59:00;;;;;;;6.50;4.43;;;16.70;99.90;;;;;;5047202;28;20570;-65
2023/10/19 04:01:27;;;;;;;8.67;4.70;;;16.70;99.90;;;;;;5042553;28;20527;-66
2023/10/19 04:03:55;;;;;;;11.10;3.90;;;16.70;99.90;;;;;;5058121;28;21220;-66
2023/10/19 04:06:22;;;;;;;10.50;3.67;;;16.90;99.90;;;;;;5054665;28;20476;-65
2023/10/19 04:08:50;;;;;;;4.53;3.30;;;16.80;99.90;;;;;;5060656;28;20565;-64
2023/10/19 04:11:22;;;;;;;11.37;5.13;;;16.80;99.90;;;;;;5057076;28;20674;-65
2023/10/19 04:13:53;;;;;;;6.23;3.43;;;16.80;99.90;;;;;;5057997;28;20519;-64
2023/10/19 04:16:20;;;;;;;4.40;3.43;;;16.90;99.90;;;;;;5057985;28;21189;-64
2023/10/19 04:18:48;;;;;;;4.20;3.20;;;16.80;99.90;;;;;;5057969;28;20507;-65
2023/10/19 04:21:15;;;;;;;10.90;3.67;;;16.80;99.90;;;;;;5057111;28;20606;-65
2023/10/19 04:23:42;;;;;;;8.17;3.73;;;16.80;99.90;;;;;;5058506;28;20515;-64
2023/10/19 04:26:11;;;;;;;8.63;4.70;;;16.70;99.90;;;;;;5057896;28;20494;-63
2023/10/19 04:28:44;;;;;;;4.90;3.77;;;16.70;99.90;;;;;;5058979;28;20493;-66
2023/10/19 04:31:15;;;;;;;6.60;3.03;;;16.70;99.90;;;;;;5060020;28;20496;-65
2023/10/19 04:33:47;;;;;;;7.13;3.20;;;16.70;99.90;;;;;;5058290;28;20475;-64
2023/10/19 04:36:15;;;;;;;5.13;3.50;;;16.80;99.90;;;;;;5058242;28;20501;-64
2023/10/19 04:38:42;;;;;;;3.50;3.00;;;16.80;99.90;;;;;;5058573;28;20574;-65
2023/10/19 04:41:11;;;;;;;10.20;4.17;;;16.90;99.90;;;;;;5066020;28;20538;-64
2023/10/19 04:43:39;;;;;;;5.30;2.50;;;17.20;99.90;;;;;;5072786;28;21521;-64
2023/10/19 04:46:10;;;;;;;4.63;3.17;;;17.20;99.90;;;;;;5059265;28;20479;-64
2023/10/19 04:48:41;;;;;;;2.80;2.40;;;17.10;99.90;;;;;;5057215;28;20992;-64
2023/10/19 04:51:09;;;;;;;4.83;2.70;;;17.20;99.90;;;;;;5060833;28;20498;-65
2023/10/19 04:53:37;;;;;;;16.70;3.73;;;17.10;99.90;;;;;;5077108;28;20537;-64
2023/10/19 04:56:05;;;;;;;11.67;4.10;;;17.00;99.90;;;;;;5062772;28;20502;-65
2023/10/19 04:58:32;;;;;;;3.37;2.27;;;16.80;99.90;;;;;;5075176;28;20583;-64
2023/10/19 05:00:59;;;;;;;4.70;3.00;;;16.60;99.90;;;;;;5075272;28;20560;-65
2023/10/19 05:03:27;;;;;;;5.63;3.13;;;16.60;99.90;;;;;;5057425;28;20561;-63
2023/10/19 05:05:56;;;;;;;6.20;2.50;;;16.40;99.90;;;;;;5080715;28;20484;-65
2023/10/19 05:08:24;;;;;;;4.33;3.10;;;16.30;99.90;;;;;;5061541;28;20552;-64
2023/10/19 05:10:52;;;;;;;5.57;2.50;;;16.30;99.90;;;;;;5062182;28;20486;-64
2023/10/19 05:13:20;;;;;;;3.63;2.70;;;16.30;99.90;;;;;;5061029;28;20570;-64
2023/10/19 05:15:47;;;;;;;6.67;3.70;;;16.30;99.90;;;;;;5060428;28;20555;-64
2023/10/19 05:18:14;;;;;;;2.53;2.00;;;16.40;99.90;;;;;;5068886;28;20485;-64
2023/10/19 05:20:41;;;;;;;6.20;3.20;;;16.40;99.90;;;;;;5070800;28;20493;-63
2023/10/19 05:23:10;;;;;;;5.20;3.10;;;16.40;99.90;;;;;;5082804;28;20972;-64
2023/10/19 05:25:37;;;;;;;4.87;3.10;;;16.40;99.90;;;;;;5051248;28;20480;-64
2023/10/19 05:28:05;;;;;;;5.27;3.47;;;16.40;99.90;;;;;;5077838;28;20587;-64
2023/10/19 05:30:32;;;;;;;11.67;4.97;;;16.40;99.90;;;;;;5062594;28;21342;-64
2023/10/19 05:33:01;;;;;;;6.60;3.50;;;16.40;99.90;;;;;;5073486;28;20585;-64
2023/10/19 05:35:29;;;;;;;5.37;2.73;;;16.30;99.90;;;;;;5068725;28;20493;-64
2023/10/19 05:37:56;;;;;;;7.43;3.60;;;16.30;99.90;;;;;;5074196;28;20486;-64
2023/10/19 05:40:29;;;;;;;4.40;2.80;;;16.30;99.90;;;;;;5052545;28;20842;-63
2023/10/19 05:42:56;;;;;;;11.53;3.47;;;16.30;99.90;;;;;;5060033;28;20906;-65
2023/10/19 05:45:29;;;;;;;9.60;3.80;;;16.50;99.90;;;;;;5056905;28;20529;-64
2023/10/19 05:47:58;;;;;;;6.23;2.73;;;16.50;99.90;;;;;;5059166;28;20634;-65
2023/10/19 05:50:25;;;;;;;5.00;3.60;;;16.50;99.90;;;;;;5065728;28;20482;-64
2023/10/19 05:52:52;;;;;;;3.30;2.33;;;16.60;99.90;;;;;;5060774;28;20511;-64
2023/10/19 05:55:21;;;;;;;5.40;3.57;;;16.60;99.90;;;;;;5083047;28;20570;-65
2023/10/19 05:57:59;;;;;;;4.90;3.40;;;16.50;99.90;;;;;;5056790;28;20613;-64
2023/10/19 06:00:26;;;;;;;4.33;2.80;;;16.40;99.90;;;;;;5063218;28;20548;-64
2023/10/19 06:02:53;;;;;;;6.40;3.57;;;16.30;99.90;;;;;;5063490;28;21167;-64
2023/10/19 06:05:20;;;;;;;6.20;3.40;;;16.30;99.90;;;;;;5079638;28;20483;-64
2023/10/19 06:07:48;;;;;;;4.73;2.43;;;16.30;99.90;;;;;;5070458;28;20594;-65
2023/10/19 06:10:17;;;;;;;5.23;3.67;;;16.30;99.90;;;;;;5069795;28;20471;-66
2023/10/19 06:12:44;;;;;;;6.93;4.47;;;16.30;99.90;;;;;;5064529;28;20485;-66
2023/10/19 06:15:13;;;;;;;3.10;2.70;;;16.30;99.90;;;;;;5084143;28;20569;-66
2023/10/19 06:17:40;;;;;;;14.80;4.07;;;16.30;99.90;;;;;;5057497;28;20548;-66
2023/10/19 06:20:19;;;;;;;3.97;3.10;;;16.30;99.90;;;;;;5057501;28;20599;-66
2023/10/19 06:22:49;;;;;;;17.43;3.33;;;16.30;99.90;;;;;;5036720;28;21055;-66
2023/10/19 06:25:17;;;;;;;3.83;2.27;;;16.30;99.90;;;;;;5072587;28;21052;-66
2023/10/19 06:27:44;;;;;;;4.20;3.17;;;16.30;99.90;;;;;;5076468;28;20481;-66
2023/10/19 06:30:17;;;;;;;3.40;2.10;;;16.30;99.90;;;;;;5054984;28;20558;-66
2023/10/19 06:32:45;;;;;;;5.83;3.70;;;16.30;99.90;;;;;;5067160;28;20473;-66
2023/10/19 06:35:12;;;;;;;7.30;3.23;;;16.30;99.90;;;;;;5054967;28;20992;-65
2023/10/19 06:37:40;;;;;;;3.97;3.40;;;16.30;99.90;;;;;;5050860;28;20486;-66
2023/10/19 06:40:08;;;;;;;5.80;3.43;;;16.30;99.90;;;;;;5046362;28;20494;-66
2023/10/19 06:42:35;;;;;;;5.20;3.57;;;16.30;99.90;;;;;;5026943;28;20576;-66
2023/10/19 06:45:02;;;;;;;11.83;3.93;;;16.40;99.90;;;;;;5075344;28;20553;-66
2023/10/19 06:47:30;;;;;;;12.20;3.80;;;16.40;99.90;;;;;;5036383;28;20539;-65
2023/10/19 06:49:57;;;;;;;12.80;3.90;;;16.40;99.90;;;;;;5082120;28;20540;-66
2023/10/19 06:52:24;;;;;;;5.83;3.67;;;16.40;99.90;;;;;;5050082;28;20921;-66
2023/10/19 06:54:52;;;;;;;6.50;3.60;;;16.40;99.90;;;;;;5057841;28;20578;-65
2023/10/19 06:57:19;;;;;;;7.80;4.43;;;16.40;99.90;;;;;;5053788;28;20475;-65
2023/10/19 06:59:45;;;;;;;20.80;5.07;;;16.30;99.90;;;;;;5059126;28;20490;-65
2023/10/19 07:02:12;;;;;;;7.77;3.80;;;16.30;99.90;;;;;;5058165;28;21126;-66
2023/10/19 07:04:41;;;;;;;12.47;3.93;;;16.30;99.90;;;;;;5056679;28;20475;-66
2023/10/19 07:07:08;;;;;;;42.33;6.10;;;16.10;99.90;;;;;;5075731;28;20493;-66
2023/10/19 07:09:36;;;;;;;6.47;2.67;;;16.00;99.90;;;;;;5056896;28;20489;-65
2023/10/19 07:12:03;;;;;;;3.90;3.57;;;15.80;99.90;;;;;;5064978;28;20493;-66
2023/10/19 07:14:30;;;;;;;4.67;3.97;;;15.50;99.90;;;;;;5070927;28;20881;-66
2023/10/19 07:16:57;;;;;;;5.37;4.23;;;15.50;99.90;;;;;;5057796;28;20490;-65
2023/10/19 07:19:23;;;;;;;6.30;3.27;;;15.50;99.90;;;;;;5067227;28;20471;-66
2023/10/19 07:21:57;;;;;;;6.03;3.47;;;15.50;99.90;;;;;;5056703;28;21188;-65
2023/10/19 07:24:24;;;;;;;9.33;2.57;;;15.50;99.90;;;;;;5042723;28;20467;-65
2023/10/19 07:27:04;;;;;;;2.20;1.77;;;15.60;99.90;;;;;;5056180;28;20577;-65
2023/10/19 07:29:33;;;;;;;3.90;2.93;;;15.80;99.90;;;;;;5048427;28;20842;-66
2023/10/19 07:32:00;;;;;;;4.47;2.20;;;16.00;99.90;;;;;;5072771;28;20479;-66
2023/10/19 07:34:29;;;;;;;5.67;3.67;;;16.10;99.90;;;;;;5058312;28;20495;-65
2023/10/19 07:37:00;;;;;;;7.00;3.90;;;16.30;99.90;;;;;;5070900;28;20552;-63
2023/10/19 07:39:29;;;;;;;5.27;4.00;;;16.40;99.90;;;;;;5073064;28;20510;-64
2023/10/19 07:41:56;;;;;;;7.07;3.90;;;16.40;99.90;;;;;;5049529;28;21551;-64
2023/10/19 07:44:23;;;;;;;4.33;3.53;;;16.60;99.90;;;;;;5088284;28;20489;-63
2023/10/19 07:46:50;;;;;;;4.60;3.23;;;16.80;99.90;;;;;;5060669;28;20489;-64
2023/10/19 07:49:17;;;;;;;3.17;2.87;;;16.70;99.90;;;;;;5069867;28;20559;-64
2023/10/19 07:51:47;;;;;;;2.43;2.20;;;16.70;99.90;;;;;;5054620;28;20510;-63
2023/10/19 07:54:15;;;;;;;6.20;3.13;;;16.70;99.90;;;;;;5077995;28;20502;-63
2023/10/19 07:56:43;;;;;;;3.67;3.23;;;16.70;99.90;;;;;;5053577;28;21101;-64
2023/10/19 07:59:12;;;;;;;3.90;2.87;;;16.80;99.90;;;;;;5047200;28;20467;-64
2023/10/19 08:01:38;;;;;;;4.50;3.87;;;16.90;99.90;;;;;;5050161;28;20483;-64
2023/10/19 08:04:06;;;;;;;5.90;3.50;;;16.80;99.90;;;;;;5052788;28;20511;-64
2023/10/19 08:06:33;;;;;;;11.03;4.10;;;16.80;99.90;;;;;;5069891;28;20568;-64
2023/10/19 08:09:00;;;;;;;5.90;3.80;;;16.80;99.90;;;;;;5068181;28;20473;-64
2023/10/19 08:11:28;;;;;;;5.30;3.97;;;16.90;99.90;;;;;;5068685;28;20524;-64
2023/10/19 08:13:55;;;;;;;5.70;4.27;;;17.00;99.90;;;;;;5066702;28;20520;-64
2023/10/19 08:16:23;;;;;;;10.53;3.87;;;17.00;99.90;;;;;;5048331;28;20510;-64
2023/10/19 08:18:49;;;;;;;8.63;4.43;;;17.10;99.90;;;;;;5027407;28;21045;-63
2023/10/19 08:21:17;;;;;;;7.47;4.10;;;17.20;99.90;;;;;;5052844;28;20482;-64
2023/10/19 08:23:45;;;;;;;8.07;4.20;;;17.40;99.90;;;;;;5077865;28;20471;-64
2023/10/19 08:26:11;;;;;;;6.67;4.30;;;17.60;99.90;;;;;;5076275;28;20829;-63
2023/10/19 08:28:40;;;;;;;10.53;4.67;;;17.80;99.90;;;;;;5068567;28;21041;-66
2023/10/19 08:31:10;;;;;;;7.07;4.47;;;17.90;99.90;;;;;;5056199;28;20495;-65
2023/10/19 08:33:38;;;;;;;6.10;4.20;;;18.10;99.90;;;;;;5084397;28;20515;-66
2023/10/19 08:36:06;;;;;;;5.83;4.13;;;18.40;99.90;;;;;;5053491;28;20471;-66
2023/10/19 08:38:33;;;;;;;10.47;4.90;;;18.60;99.90;;;;;;5058536;28;20585;-65
2023/10/19 08:41:01;;;;;;;6.47;4.00;;;19.30;99.90;;;;;;5074628;28;20585;-64
2023/10/19 08:43:28;;;;;;;4.97;3.73;;;19.30;99.90;;;;;;5037809;28;20490;-64
2023/10/19 08:45:57;;;;;;;5.80;3.67;;;19.60;99.90;;;;;;5056930;28;21671;-65
2023/10/19 08:48:24;;;;;;;5.83;3.23;;;19.90;99.90;;;;;;5061907;28;20504;-65
2023/10/19 08:50:55;;;;;;;3.17;2.33;;;20.20;99.90;;;;;;5069792;28;20569;-65
2023/10/19 08:53:23;;;;;;;4.77;2.80;;;20.10;99.90;;;;;;5056146;28;20539;-66
2023/10/19 08:55:50;;;;;;;10.00;3.40;;;20.20;99.90;;;;;;5021489;28;20552;-66
2023/10/19 08:58:19;;;;;;;6.93;2.97;;;20.10;99.90;;;;;;5061373;28;20485;-66
2023/10/19 09:00:53;;;;;;;3.83;2.63;;;20.10;99.90;;;;;;5086822;28;20477;-66
2023/10/19 09:03:21;;;;;;;3.80;2.53;;;20.10;99.90;;;;;;5060091;28;20483;-66
2023/10/19 09:05:49;;;;;;;7.93;3.60;;;20.20;99.90;;;;;;5059415;28;20485;-66
2023/10/19 09:08:17;;;;;;;6.40;3.23;;;20.20;99.90;;;;;;5062483;28;20566;-66
2023/10/19 09:10:46;;;;;;;4.20;2.90;;;20.30;99.90;;;;;;5061409;28;20486;-65
2023/10/19 09:13:15;;;;;;;5.80;2.97;;;20.20;99.90;;;;;;5057526;28;20482;-65
2023/10/19 09:15:43;;;;;;;4.60;2.17;;;20.10;99.90;;;;;;5058182;28;20496;-65
2023/10/19 09:18:17;;;;;;;4.30;3.80;;;20.10;99.90;;;;;;5070382;28;20495;-67
2023/10/19 09:21:02;;;;;;;5.47;2.60;;;20.10;99.90;;;;;;5059051;28;20562;-66
2023/10/19 09:23:28;;;;;;;7.17;2.43;;;20.10;99.90;;;;;;5082696;28;21036;-66
2023/10/19 09:25:58;;;;;;;5.40;2.80;;;20.00;99.90;;;;;;5061735;28;20945;-66
2023/10/19 09:28:25;;;;;;;7.30;2.43;;;19.90;99.90;;;;;;5068145;28;20540;-66
2023/10/19 09:30:53;;;;;;;2.70;2.13;;;19.80;99.90;;;;;;5070068;28;20487;-66
2023/10/19 09:33:21;;;;;;;2.80;1.93;;;19.90;99.90;;;;;;5061277;28;20524;-66
2023/10/19 09:35:52;;;;;;;4.20;2.20;;;19.80;99.90;;;;;;5047987;28;20467;-66
2023/10/19 09:38:21;;;;;;;6.20;2.87;;;19.90;99.90;;;;;;5059917;28;20532;-66
2023/10/19 09:40:49;;;;;;;3.70;2.40;;;19.70;99.90;;;;;;5062081;28;20897;-66
2023/10/19 09:43:24;;;;;;;3.33;1.83;;;19.70;99.90;;;;;;5060691;28;20892;-65
2023/10/19 09:45:54;;;;;;;5.60;2.70;;;19.60;99.90;;;;;;5048999;28;20485;-66
2023/10/19 09:48:21;;;;;;;3.50;2.50;;;19.60;99.90;;;;;;5044874;28;20598;-66
2023/10/19 09:50:55;;;;;;;3.43;2.03;;;19.70;99.90;;;;;;5069195;28;20562;-66
2023/10/19 09:53:24;;;;;;;3.63;1.60;;;19.70;99.90;;;;;;5070895;28;20573;-66
2023/10/19 09:55:54;;;;;;;2.37;1.60;;;19.80;99.90;;;;;;5079207;28;20477;-66
2023/10/19 09:58:29;;;;;;;2.30;1.73;;;19.80;99.90;;;;;;5069507;28;20493;-66
2023/10/19 10:00:57;;;;;;;5.00;1.83;;;19.60;99.90;;;;;;5062634;28;20491;-66
2023/10/19 10:03:44;;;;;;;5.20;2.17;;;19.70;99.90;;;;;;5085826;28;20548;-65
2023/10/19 10:06:13;;;;;;;4.07;2.40;;;19.50;99.90;;;;;;5057852;28;21071;-66
2023/10/19 10:08:42;;;;;;;6.63;2.00;;;19.50;99.90;;;;;;5058444;28;20475;-66
2023/10/19 10:11:21;;;;;;;3.07;2.13;;;19.60;99.90;;;;;;5059681;28;20471;-66
2023/10/19 10:13:51;;;;;;;2.67;1.90;;;19.50;99.90;;;;;;5059775;28;20475;-66
2023/10/19 10:16:19;;;;;;;2.40;1.73;;;19.50;99.90;;;;;;5056151;28;20490;-66
2023/10/19 10:18:50;;;;;;;2.30;2.03;;;19.40;99.90;;;;;;5059308;28;20566;-66
2023/10/19 10:21:21;;;;;;;4.27;2.23;;;19.40;99.90;;;;;;5048838;28;20882;-66
2023/10/19 10:23:50;;;;;;;6.27;3.00;;;19.20;99.90;;;;;;5068577;28;20473;-67
2023/10/19 10:26:18;;;;;;;2.63;2.17;;;19.20;99.90;;;;;;5054553;28;21179;-67
2023/10/19 10:28:50;;;;;;;3.13;1.40;;;19.10;99.90;;;;;;5057941;28;20621;-66
2023/10/19 10:31:21;;;;;;;4.13;2.00;;;19.00;99.90;;;;;;5079309;28;20883;-66
2023/10/19 10:33:51;;;;;;;3.63;1.80;;;19.00;99.90;;;;;;5053823;28;20962;-66
2023/10/19 10:36:20;;;;;;;2.93;1.77;;;18.90;99.90;;;;;;5078916;28;20612;-66
2023/10/19 10:38:48;;;;;;;3.57;2.33;;;18.90;99.90;;;;;;5064000;28;20479;-65
2023/10/19 10:41:21;;;;;;;4.43;2.37;;;18.90;99.90;;;;;;5058962;28;20930;-65
2023/10/19 10:43:53;;;;;;;3.03;2.00;;;18.70;99.90;;;;;;5058385;28;20466;-64
2023/10/19 10:46:22;;;;;;;4.67;2.10;;;18.70;99.90;;;;;;5058812;28;20471;-64
2023/10/19 10:48:49;;;;;;;2.23;2.03;;;18.70;99.90;;;;;;5060402;28;20917;-64
2023/10/19 10:51:22;;;;;;;2.60;1.60;;;18.70;99.90;;;;;;5053804;28;20548;-65
2023/10/19 10:53:50;;;;;;;3.17;2.40;;;18.70;99.90;;;;;;5076046;28;20570;-67
2023/10/19 10:56:18;;;;;;;3.10;1.97;;;18.70;99.90;;;;;;5053331;28;20491;-66
2023/10/19 10:58:44;;;;;;;2.80;1.97;;;18.80;99.90;;;;;;5065511;28;20959;-66
2023/10/19 11:01:13;;;;;;;4.23;2.40;;;18.80;99.90;;;;;;5059465;28;21369;-66
2023/10/19 11:03:39;;;;;;;5.87;2.67;;;18.90;99.90;;;;;;5081872;28;20483;-66
2023/10/19 11:06:08;;;;;;;15.13;10.90;;;18.90;99.90;;;;;;5057487;28;20628;-66
2023/10/19 11:08:38;;;;;;;6.63;2.53;;;19.00;99.90;;;;;;5057046;28;21155;-66
2023/10/19 11:11:07;;;;;;;6.23;2.70;;;19.00;99.90;;;;;;5052502;28;20481;-66
2023/10/19 11:13:35;;;;;;;4.30;2.47;;;19.00;99.90;;;;;;5063488;28;21072;-66
2023/10/19 11:16:05;;;;;;;6.10;2.10;;;19.00;99.90;;;;;;5055039;28;20871;-66
2023/10/19 11:18:35;;;;;;;2.70;2.20;;;19.00;99.90;;;;;;5054143;28;20479;-65
2023/10/19 11:21:06;;;;;;;2.10;1.90;;;18.70;99.90;;;;;;5057612;28;20491;-65
2023/10/19 11:23:42;;;;;;;4.70;2.60;;;18.70;99.90;;;;;;5057823;28;20492;-65
2023/10/19 11:26:11;;;;;;;2.73;2.10;;;18.60;99.90;;;;;;5073828;28;20557;-66
2023/10/19 11:28:47;;;;;;;2.87;2.53;;;18.50;99.90;;;;;;5056536;28;20478;-65
2023/10/19 11:31:15;;;;;;;2.77;2.40;;;18.50;99.90;;;;;;5054080;28;20467;-65
2023/10/19 11:33:43;;;;;;;3.33;1.97;;;18.40;99.90;;;;;;5058397;28;20471;-65
2023/10/19 11:36:12;;;;;;;5.70;2.43;;;18.40;99.90;;;;;;5057592;28;20474;-65
2023/10/19 11:38:41;;;;;;;3.03;2.60;;;18.40;99.90;;;;;;5058397;28;20486;-64
2023/10/19 11:41:08;;;;;;;3.80;1.73;;;18.40;99.90;;;;;;5051056;28;20502;-65
2023/10/19 11:43:35;;;;;;;4.30;3.40;;;18.40;99.90;;;;;;5056418;28;20602;-64
2023/10/19 11:46:04;;;;;;;2.80;1.83;;;18.30;99.90;;;;;;5072902;28;20553;-64
2023/10/19 11:48:31;;;;;;;2.23;1.70;;;18.30;99.90;;;;;;5053732;28;20494;-66
2023/10/19 11:50:58;;;;;;;3.40;2.00;;;18.40;99.90;;;;;;5057803;28;21186;-65
2023/10/19 11:53:24;;;;;;;4.03;2.60;;;18.50;99.90;;;;;;5056718;28;20810;-65
2023/10/19 11:55:53;;;;;;;3.03;2.50;;;18.50;99.90;;;;;;5056975;28;20895;-66
2023/10/19 11:58:20;;;;;;;3.27;2.33;;;18.60;99.90;;;;;;5053657;28;20467;-63
2023/10/19 12:00:46;;;;;;;8.33;2.90;;;18.50;99.90;;;;;;5059160;28;20486;-63
2023/10/19 12:03:13;;;;;;;4.80;3.50;;;18.50;99.90;;;;;;5059669;28;20577;-63
2023/10/19 12:05:42;;;;;;;2.40;2.07;;;18.30;99.90;;;;;;5061085;28;21183;-64
2023/10/19 12:08:09;;;;;;;3.17;1.93;;;18.30;99.90;;;;;;5061919;28;21236;-64
2023/10/19 12:10:36;;;;;;;6.00;2.83;;;18.20;99.90;;;;;;5062411;28;20976;-64
2023/10/19 12:13:06;;;;;;;3.43;3.13;;;18.20;99.90;;;;;;5067826;28;20873;-64
2023/10/19 12:15:33;;;;;;;2.53;2.17;;;18.10;99.90;;;;;;5058098;28;20536;-62
2023/10/19 12:18:01;;;;;;;6.70;3.30;;;18.10;99.90;;;;;;5061882;28;20871;-64
2023/10/19 12:20:30;;;;;;;4.40;3.00;;;17.90;99.90;;;;;;5062576;28;20973;-66
2023/10/19 12:22:58;;;;;;;4.93;2.57;;;17.80;99.90;;;;;;5061757;28;20590;-66
2023/10/19 12:25:29;;;;;;;2.77;2.17;;;17.80;99.90;;;;;;5057818;28;20907;-63
2023/10/19 12:27:59;;;;;;;2.10;1.80;;;17.80;99.90;;;;;;5058785;28;20906;-65
2023/10/19 12:30:32;;;;;;;6.07;3.80;;;17.80;99.90;;;;;;5059621;28;20953;-66
2023/10/19 12:33:01;;;;;;;4.03;2.70;;;17.80;99.90;;;;;;5062112;28;20471;-66
2023/10/19 12:35:44;;;;;;;3.73;2.40;;;18.00;99.90;;;;;;5060655;28;20891;-65
2023/10/19 12:38:15;;;;;;;2.50;2.30;;;17.90;99.90;;;;;;5049349;28;20471;-65
2023/10/19 12:40:44;;;;;;;6.27;2.63;;;18.10;99.90;;;;;;5061369;28;20498;-65
2023/10/19 12:43:12;;;;;;;2.80;2.40;;;18.30;99.90;;;;;;5059231;28;20516;-65
2023/10/19 12:45:41;;;;;;;4.37;3.10;;;18.30;99.90;;;;;;5061674;28;20475;-65
2023/10/19 12:48:10;;;;;;;3.37;2.40;;;18.40;99.90;;;;;;5058666;28;20493;-65
2023/10/19 12:50:38;;;;;;;3.13;2.30;;;18.40;99.90;;;;;;5062842;28;20470;-65
2023/10/19 12:53:06;;;;;;;4.20;2.43;;;18.40;99.90;;;;;;5062709;28;21247;-65